createdAt,value
2022-07-25T00:00:02.795Z,100
2022-07-25T00:05:03.088Z,100
2022-07-25T00:10:02.858Z,100
2022-07-25T00:15:02.728Z,100
2022-07-25T00:20:02.566Z,100
2022-07-25T00:25:02.415Z,100
2022-07-25T00:30:02.364Z,100
2022-07-25T00:35:02.253Z,100
2022-07-25T00:40:02.983Z,100
2022-07-25T00:45:02.701Z,100
2022-07-25T00:50:02.419Z,100
2022-07-25T00:55:04.436Z,100
2022-07-25T01:00:03.510Z,100
2022-07-25T01:05:03.232Z,100
2022-07-25T01:10:03.083Z,100
2022-07-25T01:15:03.434Z,100
2022-07-25T01:20:03.626Z,100
2022-07-25T01:25:03.274Z,100
2022-07-25T01:30:03.168Z,100
2022-07-25T01:35:02.929Z,100
2022-07-25T01:40:04.103Z,100
2022-07-25T01:45:03.594Z,100
2022-07-25T01:50:02.600Z,100
2022-07-25T01:55:06.807Z,100
2022-07-25T02:00:03.504Z,100
2022-07-25T02:05:02.849Z,100
2022-07-25T02:10:02.588Z,100
2022-07-25T02:15:02.511Z,100
2022-07-25T02:20:02.393Z,100
2022-07-25T02:25:03.182Z,100
2022-07-25T02:30:02.986Z,100
2022-07-25T02:35:02.687Z,100
2022-07-25T02:40:02.329Z,100
2022-07-25T02:45:03.069Z,100
2022-07-25T02:50:03.015Z,100
2022-07-25T02:55:10.369Z,100
2022-07-25T03:00:02.759Z,100
2022-07-25T03:05:02.853Z,100
2022-07-25T03:10:11.937Z,100
2022-07-25T03:15:02.512Z,100
2022-07-25T03:20:03.672Z,100
2022-07-25T03:25:03.336Z,100
2022-07-25T03:30:03.351Z,100
2022-07-25T03:35:03.186Z,100
2022-07-25T03:40:02.795Z,100
2022-07-25T03:45:03.629Z,100
2022-07-25T03:50:03.364Z,100
2022-07-25T03:55:04.022Z,100
2022-07-25T04:00:02.770Z,100
2022-07-25T04:05:03.022Z,100
2022-07-25T04:10:02.839Z,100
2022-07-25T04:15:02.718Z,100
2022-07-25T04:20:02.496Z,100
2022-07-25T04:25:03.171Z,100
2022-07-25T04:30:02.730Z,100
2022-07-25T04:35:02.402Z,100
2022-07-25T04:40:02.297Z,100
2022-07-25T04:45:02.297Z,100
2022-07-25T04:50:03.224Z,100
2022-07-25T04:55:03.842Z,100
2022-07-25T05:00:02.723Z,100
2022-07-25T05:05:03.789Z,100
2022-07-25T05:10:03.590Z,100
2022-07-25T05:15:03.435Z,100
2022-07-25T05:20:03.323Z,100
2022-07-25T05:25:02.651Z,100
2022-07-25T05:30:02.537Z,100
2022-07-25T05:35:03.051Z,100
2022-07-25T05:40:03.353Z,100
2022-07-25T05:45:03.367Z,100
2022-07-25T05:50:02.968Z,100
2022-07-25T05:55:03.563Z,100
2022-07-25T06:00:03.426Z,100
2022-07-25T06:05:02.709Z,100
2022-07-25T06:10:02.436Z,100
2022-07-25T06:15:03.243Z,100
2022-07-25T06:20:03.029Z,100
2022-07-25T06:25:02.750Z,100
2022-07-25T06:30:02.543Z,100
2022-07-25T06:35:02.604Z,100
2022-07-25T06:40:02.597Z,100
2022-07-25T06:45:02.399Z,100
2022-07-25T06:50:03.128Z,100
2022-07-25T06:55:04.320Z,100
2022-07-25T07:00:02.511Z,100
2022-07-25T07:05:02.815Z,100
2022-07-25T07:10:03.395Z,100
2022-07-25T07:15:03.107Z,100
2022-07-25T07:20:03.173Z,100
2022-07-25T07:25:06.455Z,100
2022-07-25T07:30:03.182Z,100
2022-07-25T07:35:02.875Z,100
2022-07-25T07:40:02.622Z,100
2022-07-25T07:45:03.548Z,100
2022-07-25T07:50:03.456Z,100
2022-07-25T07:55:03.951Z,100
2022-07-25T08:00:03.225Z,100
2022-07-25T08:05:02.498Z,100
2022-07-25T08:10:02.422Z,100
2022-07-25T08:15:02.493Z,100
2022-07-25T08:20:39.329Z,100
2022-07-25T08:25:03.165Z,100
2022-07-25T08:30:02.873Z,100
2022-07-25T08:35:02.654Z,100
2022-07-25T08:40:03.374Z,100
2022-07-25T08:45:03.094Z,100
2022-07-25T08:50:05.281Z,100
2022-07-25T08:55:03.530Z,100
2022-07-25T09:00:03.535Z,100
2022-07-25T09:05:02.962Z,100
2022-07-25T09:10:02.628Z,100
2022-07-25T09:15:02.507Z,100
2022-07-25T09:20:02.246Z,100
2022-07-25T09:25:03.113Z,100
2022-07-25T09:30:03.107Z,100
2022-07-25T09:35:02.766Z,100
2022-07-25T09:40:02.541Z,100
2022-07-25T09:45:02.398Z,100
2022-07-25T09:50:03.014Z,100
2022-07-25T09:55:03.803Z,100
2022-07-25T10:00:02.465Z,100
2022-07-25T10:05:02.647Z,100
2022-07-25T10:10:03.236Z,100
2022-07-25T10:15:03.047Z,100
2022-07-25T10:20:02.733Z,100
2022-07-25T10:25:03.455Z,100
2022-07-25T10:30:03.331Z,97.44
2022-07-25T10:35:02.826Z,100
2022-07-25T10:40:02.696Z,90.83
2022-07-25T10:45:03.575Z,85.51
2022-07-25T10:50:29.491Z,90.34
2022-07-25T10:55:03.557Z,96.56
2022-07-25T11:00:02.987Z,81.2
2022-07-25T11:05:03.133Z,85.68
2022-07-25T11:10:02.798Z,87.14
2022-07-25T11:15:03.618Z,82.27
2022-07-25T11:20:03.574Z,89.28
2022-07-25T11:25:03.417Z,86.21
2022-07-25T11:30:03.119Z,85.46
2022-07-25T11:35:02.906Z,86.3
2022-07-25T11:40:03.464Z,80.02
2022-07-25T11:45:03.193Z,79.58
2022-07-25T11:50:02.825Z,88
2022-07-25T11:55:04.288Z,89.42
2022-07-25T12:00:03.388Z,77.25
2022-07-25T12:05:02.488Z,86.21
2022-07-25T12:10:02.219Z,77.11
2022-07-25T12:15:02.975Z,77.95
2022-07-25T12:20:04.064Z,76.88
2022-07-25T12:25:02.750Z,75.28
2022-07-25T12:30:02.555Z,83.19
2022-07-25T12:35:03.114Z,74.5
2022-07-25T12:40:02.418Z,84.24
2022-07-25T12:45:03.081Z,77.64
2022-07-25T12:50:02.819Z,66.4
2022-07-25T12:55:03.755Z,68.35
2022-07-25T13:00:02.251Z,70.43
2022-07-25T13:05:03.529Z,67.36
2022-07-25T13:10:03.277Z,68.28
2022-07-25T13:15:03.137Z,65.4
2022-07-25T13:20:02.336Z,67.25
2022-07-25T13:25:03.109Z,70.78
2022-07-25T13:30:02.866Z,75.75
2022-07-25T13:35:02.504Z,82.72
2022-07-25T13:40:02.295Z,78.45
2022-07-25T13:45:03.110Z,80.08
2022-07-25T13:50:02.784Z,74.43
2022-07-25T13:55:04.107Z,89.74
2022-07-25T14:00:02.290Z,81.62
2022-07-25T14:05:05.011Z,75
2022-07-25T14:10:03.260Z,74.96
2022-07-25T14:15:02.863Z,73.06
2022-07-25T14:20:02.696Z,60.84
2022-07-25T14:25:03.101Z,60.97
2022-07-25T14:30:02.875Z,67.72
2022-07-25T14:35:02.551Z,64.58
2022-07-25T14:40:03.298Z,62.67
2022-07-25T14:45:03.605Z,79.74
2022-07-25T14:50:03.508Z,71.25
2022-07-25T14:55:04.105Z,80.48
2022-07-25T15:00:02.601Z,77.76
2022-07-25T15:05:03.194Z,76.72
2022-07-25T15:10:03.425Z,81.08
2022-07-25T15:15:03.200Z,78.2
2022-07-25T15:20:02.892Z,77.69
2022-07-25T15:26:04.284Z,74.48
2022-07-25T15:30:02.687Z,77.8
2022-07-25T15:35:02.340Z,80.49
2022-07-25T15:40:03.054Z,84.52
2022-07-25T15:45:33.880Z,76.87
2022-07-25T15:50:02.836Z,65.02
2022-07-25T15:55:04.623Z,70.49
2022-07-25T16:00:02.842Z,75.02
2022-07-25T16:05:03.038Z,76.58
2022-07-25T16:10:02.272Z,83.71
2022-07-25T16:15:02.994Z,84.73
2022-07-25T16:20:02.716Z,84.54
2022-07-25T16:25:02.432Z,90.71
2022-07-25T16:30:03.035Z,94.32
2022-07-25T16:35:02.675Z,94.13
2022-07-25T16:40:02.465Z,97.66
2022-07-25T16:45:03.197Z,100
2022-07-25T16:50:03.344Z,100
2022-07-25T16:55:03.901Z,100
2022-07-25T17:00:02.970Z,100
2022-07-25T17:05:03.217Z,100
2022-07-25T17:10:03.367Z,100
2022-07-25T17:15:03.182Z,100
2022-07-25T17:20:02.907Z,100
2022-07-25T17:25:02.632Z,100
2022-07-25T17:35:02.988Z,100
2022-07-25T17:40:02.560Z,100
2022-07-25T17:45:03.406Z,100
2022-07-25T17:50:03.135Z,100
2022-07-25T17:55:04.894Z,100
2022-07-25T18:00:04.350Z,100
2022-07-25T18:05:03.139Z,100
2022-07-25T18:10:03.010Z,100
2022-07-25T18:15:02.885Z,100
2022-07-25T18:20:03.467Z,100
2022-07-25T18:25:03.281Z,100
2022-07-25T18:30:03.036Z,100
2022-07-25T18:35:02.798Z,100
2022-07-25T18:40:03.451Z,100
2022-07-25T18:45:03.246Z,100
2022-07-25T18:50:02.908Z,100
2022-07-25T18:55:03.289Z,100
2022-07-25T19:00:04.325Z,100
2022-07-25T19:05:02.760Z,100
2022-07-25T19:10:02.509Z,100
2022-07-25T19:15:02.384Z,100
2022-07-25T19:20:03.078Z,100
2022-07-25T19:25:02.803Z,100
2022-07-25T19:30:02.631Z,100
2022-07-25T19:35:02.244Z,100
2022-07-25T19:40:02.955Z,100
2022-07-25T19:45:02.715Z,100
2022-07-25T19:50:02.347Z,100
2022-07-25T19:55:04.328Z,100
2022-07-25T20:00:02.837Z,100
2022-07-25T20:05:03.017Z,100
2022-07-25T20:10:04.132Z,100
2022-07-25T20:15:03.425Z,100
2022-07-25T20:20:03.192Z,100
2022-07-25T20:25:02.919Z,100
2022-07-25T20:30:03.646Z,100
2022-07-25T20:35:02.772Z,100
2022-07-25T20:40:02.503Z,100
2022-07-25T20:45:03.212Z,100
2022-07-25T20:50:02.884Z,100
2022-07-25T20:55:07.622Z,100
2022-07-25T21:00:02.883Z,100
2022-07-25T21:05:03.176Z,100
2022-07-25T21:10:02.890Z,100
2022-07-25T21:15:03.578Z,100
2022-07-25T21:20:03.361Z,100
2022-07-25T21:25:03.051Z,100
2022-07-25T21:30:02.966Z,100
2022-07-25T21:35:03.624Z,100
2022-07-25T21:40:03.481Z,100
2022-07-25T21:45:03.309Z,100
2022-07-25T21:50:03.953Z,100
2022-07-25T21:55:03.860Z,100
2022-07-25T22:00:02.926Z,100
2022-07-25T22:05:03.093Z,100
2022-07-25T22:10:03.312Z,100
2022-07-25T22:15:02.947Z,100
2022-07-25T22:20:02.941Z,100
2022-07-25T22:25:02.686Z,100
2022-07-25T22:30:03.377Z,100
2022-07-25T22:35:06.875Z,100
2022-07-25T22:40:03.502Z,100
2022-07-25T22:45:03.269Z,100
2022-07-25T22:50:02.778Z,100
2022-07-25T22:55:04.381Z,100
2022-07-25T23:00:03.292Z,100
2022-07-25T23:05:02.976Z,100
2022-07-25T23:10:02.782Z,100
2022-07-25T23:15:03.490Z,100
2022-07-25T23:20:03.457Z,100
2022-07-25T23:25:03.251Z,100
2022-07-25T23:30:02.972Z,100
2022-07-25T23:35:02.807Z,100
2022-07-25T23:40:03.414Z,100
2022-07-25T23:45:06.696Z,100
2022-07-25T23:50:03.355Z,100
2022-07-25T23:55:04.017Z,100
